createdAt,value
2022-08-31T00:02:08.982Z,17.18
2022-08-31T00:05:13.112Z,17.13
2022-08-31T00:08:17.388Z,17.21
2022-08-31T00:11:28.368Z,17.22
2022-08-31T00:14:33.198Z,17.30
2022-08-31T00:17:37.351Z,17.20
2022-08-31T00:20:42.138Z,17.17
2022-08-31T00:23:46.616Z,17.23
2022-08-31T00:26:50.233Z,17.15
2022-08-31T00:29:54.161Z,17.14
2022-08-31T00:33:00.364Z,17.24
2022-08-31T00:36:07.179Z,17.12
2022-08-31T00:39:10.963Z,17.07
2022-08-31T00:42:14.870Z,17.03
2022-08-31T00:45:19.566Z,17.12
2022-08-31T00:48:23.361Z,16.94
2022-08-31T00:51:29.826Z,16.95
2022-08-31T00:54:43.374Z,16.94
2022-08-31T00:57:49.786Z,16.92
2022-08-31T01:00:54.732Z,16.97
2022-08-31T01:03:59.483Z,17.03
2022-08-31T01:07:06.245Z,16.93
2022-08-31T01:10:10.739Z,16.88
2022-08-31T01:13:15.742Z,16.87
2022-08-31T01:16:26.859Z,16.82
2022-08-31T01:19:43.850Z,16.78
2022-08-31T01:23:03.802Z,16.78
2022-08-31T01:26:19.997Z,16.69
2022-08-31T01:29:23.809Z,16.70
2022-08-31T01:32:27.897Z,16.71
2022-08-31T01:35:32.999Z,16.70
2022-08-31T01:38:37.519Z,16.70
2022-08-31T01:41:43.976Z,16.67
2022-08-31T01:44:48.104Z,16.69
2022-08-31T01:47:51.922Z,16.73
2022-08-31T01:50:56.157Z,16.72
2022-08-31T01:54:00.397Z,16.64
2022-08-31T01:57:04.806Z,16.70
2022-08-31T02:00:09.836Z,16.68
2022-08-31T02:03:13.977Z,16.72
2022-08-31T02:06:17.964Z,16.68
2022-08-31T02:09:22.451Z,16.72
2022-08-31T02:12:26.725Z,16.69
2022-08-31T02:15:31.707Z,16.64
2022-08-31T02:18:36.200Z,16.65
2022-08-31T02:21:40.429Z,16.62
2022-08-31T02:24:44.350Z,16.62
2022-08-31T02:27:48.473Z,16.62
2022-08-31T02:30:52.622Z,16.63
2022-08-31T02:33:56.523Z,16.64
2022-08-31T02:37:00.716Z,16.56
2022-08-31T02:40:11.009Z,16.54
2022-08-31T02:43:17.569Z,16.50
2022-08-31T02:46:28.839Z,16.56
2022-08-31T02:49:33.541Z,16.54
2022-08-31T02:52:37.925Z,16.48
2022-08-31T02:55:42.981Z,16.44
2022-08-31T02:58:46.974Z,16.44
2022-08-31T03:01:52.754Z,16.38
2022-08-31T03:04:56.895Z,16.37
2022-08-31T03:08:00.598Z,16.36
2022-08-31T03:11:04.613Z,16.38
2022-08-31T03:14:08.277Z,16.39
2022-08-31T03:17:11.982Z,16.30
2022-08-31T03:20:17.537Z,16.29
2022-08-31T03:23:21.466Z,16.27
2022-08-31T03:26:25.707Z,16.26
2022-08-31T03:29:29.720Z,16.22
2022-08-31T03:32:33.488Z,16.23
2022-08-31T03:35:38.096Z,16.21
2022-08-31T03:38:42.293Z,16.21
2022-08-31T03:41:46.167Z,16.15
2022-08-31T03:44:50.292Z,16.15
2022-08-31T03:47:54.739Z,16.14
2022-08-31T03:50:58.602Z,16.17
2022-08-31T03:54:02.427Z,16.13
2022-08-31T03:57:06.381Z,16.08
2022-08-31T04:00:11.205Z,16.10
2022-08-31T04:03:15.493Z,16.03
2022-08-31T04:06:20.899Z,15.96
2022-08-31T04:09:24.698Z,15.99
2022-08-31T04:12:28.394Z,15.99
2022-08-31T04:15:32.237Z,15.99
2022-08-31T04:18:37.056Z,15.99
2022-08-31T04:21:44.265Z,15.99
2022-08-31T04:24:48.813Z,15.97
2022-08-31T04:27:54.281Z,15.98
2022-08-31T04:30:58.077Z,15.95
2022-08-31T04:34:01.810Z,16.01
2022-08-31T04:37:08.796Z,16.02
2022-08-31T04:40:19.527Z,16.10
2022-08-31T04:43:25.061Z,16.09
2022-08-31T04:46:30.827Z,16.09
2022-08-31T04:49:34.999Z,16.13
2022-08-31T04:52:39.078Z,16.15
2022-08-31T04:55:44.565Z,16.15
2022-08-31T04:58:51.604Z,16.17
2022-08-31T05:01:55.724Z,16.27
2022-08-31T05:05:01.001Z,16.24
2022-08-31T05:08:05.783Z,16.24
2022-08-31T05:11:11.657Z,16.26
2022-08-31T05:14:15.951Z,16.19
2022-08-31T05:17:20.095Z,16.17
2022-08-31T05:20:24.825Z,16.11
2022-08-31T05:23:29.540Z,16.13
2022-08-31T05:26:37.600Z,16.11
2022-08-31T05:29:45.789Z,16.15
2022-08-31T05:32:49.798Z,16.17
2022-08-31T05:35:54.329Z,16.15
2022-08-31T05:39:01.409Z,16.09
2022-08-31T05:42:07.403Z,16.18
2022-08-31T05:45:11.582Z,16.10
2022-08-31T05:48:16.116Z,16.15
2022-08-31T05:51:20.121Z,16.18
2022-08-31T05:54:24.879Z,16.23
2022-08-31T05:57:28.991Z,16.27
2022-08-31T06:00:33.409Z,16.27
2022-08-31T06:03:37.659Z,16.38
2022-08-31T06:06:41.852Z,16.35
2022-08-31T06:09:45.848Z,16.30
2022-08-31T06:12:50.109Z,16.33
2022-08-31T06:15:54.709Z,16.46
2022-08-31T06:18:59.429Z,16.46
2022-08-31T06:22:03.682Z,16.43
2022-08-31T06:25:10.234Z,16.43
2022-08-31T06:28:15.288Z,16.38
2022-08-31T06:31:27.790Z,16.49
2022-08-31T06:34:32.088Z,16.48
2022-08-31T06:37:36.073Z,16.56
2022-08-31T06:40:39.800Z,16.61
2022-08-31T06:43:45.002Z,16.58
2022-08-31T06:46:49.635Z,16.76
2022-08-31T06:49:53.792Z,16.88
2022-08-31T06:52:57.546Z,16.89
2022-08-31T06:56:20.625Z,16.85
2022-08-31T06:59:28.759Z,16.70
2022-08-31T07:02:33.812Z,16.66
2022-08-31T07:05:38.310Z,16.70
2022-08-31T07:08:44.641Z,16.80
2022-08-31T07:11:52.132Z,16.82
2022-08-31T07:14:56.258Z,16.95
2022-08-31T07:18:00.426Z,17.07
2022-08-31T07:21:29.874Z,17.12
2022-08-31T07:24:35.487Z,17.38
2022-08-31T07:27:40.143Z,17.51
2022-08-31T07:30:45.656Z,17.66
2022-08-31T07:33:50.882Z,17.88
2022-08-31T07:37:16.396Z,18.03
2022-08-31T07:40:39.166Z,18.15
2022-08-31T07:43:45.800Z,18.17
2022-08-31T07:46:55.383Z,18.48
2022-08-31T07:50:01.070Z,18.57
2022-08-31T07:53:08.674Z,18.47
2022-08-31T07:56:12.556Z,18.24
2022-08-31T07:59:19.406Z,18.22
2022-08-31T08:02:23.988Z,18.13
2022-08-31T08:05:31.878Z,18.14
2022-08-31T08:08:41.314Z,18.05
2022-08-31T08:11:46.843Z,18.22
2022-08-31T08:14:54.770Z,18.53
2022-08-31T08:17:59.295Z,19.02
2022-08-31T08:21:03.968Z,19.20
2022-08-31T08:24:08.299Z,19.11
2022-08-31T08:27:13.623Z,19.16
2022-08-31T08:30:17.687Z,19.44
2022-08-31T08:33:21.914Z,19.65
2022-08-31T08:36:26.394Z,19.85
2022-08-31T08:39:30.942Z,19.55
2022-08-31T08:42:34.859Z,19.95
2022-08-31T08:45:40.305Z,20.23
2022-08-31T08:48:47.776Z,20.52
2022-08-31T08:52:27.413Z,20.59
2022-08-31T08:55:37.635Z,20.83
2022-08-31T08:58:43.662Z,21.01
2022-08-31T09:01:49.945Z,21.15
2022-08-31T09:04:59.579Z,21.12
2022-08-31T09:08:23.477Z,21.24
2022-08-31T09:11:54.952Z,21.35
2022-08-31T09:15:11.198Z,21.05
2022-08-31T09:18:21.272Z,20.85
2022-08-31T09:21:38.586Z,20.88
2022-08-31T09:24:42.580Z,20.85
2022-08-31T09:27:58.856Z,20.75
2022-08-31T09:31:03.669Z,20.85
2022-08-31T09:34:30.727Z,21.05
2022-08-31T09:37:40.409Z,20.98
2022-08-31T09:40:49.674Z,20.87
2022-08-31T09:43:55.312Z,20.95
2022-08-31T09:47:04.523Z,20.95
2022-08-31T09:50:11.949Z,21.10
2022-08-31T09:53:45.435Z,21.20
2022-08-31T09:56:55.871Z,21.30
2022-08-31T10:00:00.726Z,21.18
2022-08-31T10:03:08.901Z,20.96
2022-08-31T10:06:49.689Z,20.93
2022-08-31T10:09:59.899Z,20.96
2022-08-31T10:13:13.361Z,20.98
2022-08-31T10:16:34.406Z,20.99
2022-08-31T10:19:55.366Z,21.02
2022-08-31T10:23:14.210Z,20.92
2022-08-31T10:26:31.685Z,20.80
2022-08-31T10:29:47.629Z,20.91
2022-08-31T10:33:05.140Z,20.92
2022-08-31T10:36:11.716Z,20.85
2022-08-31T10:39:24.409Z,21.14
2022-08-31T10:42:37.320Z,20.90
2022-08-31T10:45:43.888Z,20.90
2022-08-31T10:48:51.891Z,21.00
2022-08-31T10:52:17.239Z,21.18
2022-08-31T10:55:46.500Z,21.50
2022-08-31T10:59:02.112Z,21.44
2022-08-31T11:02:43.673Z,21.48
2022-08-31T11:06:02.484Z,21.49
2022-08-31T11:09:08.971Z,21.59
2022-08-31T11:12:22.681Z,21.63
2022-08-31T11:15:58.029Z,21.34
2022-08-31T11:19:26.355Z,21.12
2022-08-31T11:22:53.704Z,21.46
2022-08-31T11:26:26.536Z,21.40
2022-08-31T11:29:57.001Z,21.99
2022-08-31T11:33:07.528Z,22.42
2022-08-31T11:36:11.377Z,22.32
2022-08-31T11:39:18.646Z,22.14
2022-08-31T11:42:42.590Z,22.20
2022-08-31T11:45:47.260Z,22.14
2022-08-31T11:48:51.748Z,22.03
2022-08-31T11:51:55.755Z,21.80
2022-08-31T11:55:23.059Z,21.87
2022-08-31T11:58:33.694Z,22.12
2022-08-31T12:01:42.992Z,22.12
2022-08-31T12:04:57.500Z,22.38
2022-08-31T12:08:04.147Z,22.33
2022-08-31T12:11:18.097Z,22.48
2022-08-31T12:14:35.129Z,22.41
2022-08-31T12:17:54.793Z,22.47
2022-08-31T12:21:27.713Z,22.56
2022-08-31T12:24:45.665Z,22.38
2022-08-31T12:28:10.666Z,22.35
2022-08-31T12:31:17.841Z,22.33
2022-08-31T12:34:23.717Z,22.30
2022-08-31T12:37:30.991Z,22.11
2022-08-31T12:40:47.824Z,22.11
2022-08-31T12:43:52.073Z,22.02
2022-08-31T12:47:24.237Z,21.91
2022-08-31T12:50:48.995Z,21.86
2022-08-31T12:54:34.062Z,21.86
2022-08-31T12:57:44.091Z,21.83
2022-08-31T13:00:48.384Z,21.74
2022-08-31T13:04:04.169Z,21.86
2022-08-31T13:07:21.595Z,21.91
2022-08-31T13:10:33.759Z,21.84
2022-08-31T13:13:37.814Z,21.88
2022-08-31T13:16:48.280Z,21.84
2022-08-31T13:19:58.329Z,21.97
2022-08-31T13:23:02.917Z,21.95
2022-08-31T13:26:14.999Z,21.97
2022-08-31T13:29:23.741Z,22.08
2022-08-31T13:32:33.930Z,22.08
2022-08-31T13:35:38.621Z,22.05
2022-08-31T13:38:53.238Z,22.04
2022-08-31T13:42:05.997Z,22.03
2022-08-31T13:45:27.339Z,22.16
2022-08-31T13:48:35.233Z,22.35
2022-08-31T13:51:41.004Z,22.37
2022-08-31T13:54:58.027Z,22.32
2022-08-31T13:58:27.050Z,22.32
2022-08-31T14:01:33.062Z,22.22
2022-08-31T14:04:49.040Z,22.29
2022-08-31T14:07:56.600Z,22.12
2022-08-31T14:11:00.723Z,22.03
2022-08-31T14:14:08.182Z,22.00
2022-08-31T14:17:16.670Z,21.93
2022-08-31T14:20:36.328Z,22.03
2022-08-31T14:23:40.674Z,22.05
2022-08-31T14:26:44.697Z,22.10
2022-08-31T14:29:48.855Z,22.18
2022-08-31T14:32:54.059Z,22.33
2022-08-31T14:35:58.587Z,22.26
2022-08-31T14:39:04.377Z,22.30
2022-08-31T14:42:31.176Z,22.38
2022-08-31T14:45:37.000Z,22.23
2022-08-31T14:48:43.050Z,22.21
2022-08-31T14:51:47.263Z,22.22
2022-08-31T14:54:51.481Z,22.13
2022-08-31T14:58:08.579Z,22.16
2022-08-31T15:01:13.821Z,22.22
2022-08-31T15:04:20.869Z,22.19
2022-08-31T15:07:24.827Z,22.21
2022-08-31T15:10:28.962Z,22.15
2022-08-31T15:13:34.022Z,22.23
2022-08-31T15:16:41.219Z,22.11
2022-08-31T15:19:45.726Z,21.95
2022-08-31T15:22:50.194Z,21.90
2022-08-31T15:26:06.361Z,21.94
2022-08-31T15:29:13.446Z,21.81
2022-08-31T15:32:20.674Z,21.74
2022-08-31T15:35:26.390Z,21.72
2022-08-31T15:38:30.405Z,21.76
2022-08-31T15:41:35.125Z,21.64
2022-08-31T15:44:40.946Z,21.66
2022-08-31T15:48:03.760Z,21.68
2022-08-31T15:51:27.902Z,21.65
2022-08-31T15:54:34.277Z,21.66
2022-08-31T15:57:39.127Z,21.68
2022-08-31T16:00:43.020Z,21.66
2022-08-31T16:03:50.837Z,21.66
2022-08-31T16:06:55.599Z,21.64
2022-08-31T16:09:59.521Z,21.57
2022-08-31T16:13:09.297Z,21.57
2022-08-31T16:16:18.344Z,21.49
2022-08-31T16:19:34.998Z,21.52
2022-08-31T16:22:44.621Z,21.45
2022-08-31T16:25:49.478Z,21.36
2022-08-31T16:28:53.225Z,21.28
2022-08-31T16:31:57.104Z,21.30
2022-08-31T16:35:01.559Z,21.23
2022-08-31T16:38:07.098Z,21.16
2022-08-31T16:41:11.378Z,21.13
2022-08-31T16:44:19.974Z,21.13
2022-08-31T16:47:24.564Z,21.11
2022-08-31T16:50:28.987Z,21.10
2022-08-31T16:53:33.265Z,21.14
2022-08-31T16:56:40.716Z,21.07
2022-08-31T16:59:44.745Z,20.98
2022-08-31T17:02:48.866Z,20.94
2022-08-31T17:05:52.841Z,20.95
2022-08-31T17:08:58.955Z,20.82
2022-08-31T17:12:07.577Z,20.82
2022-08-31T17:15:13.844Z,20.73
2022-08-31T17:18:19.621Z,20.72
2022-08-31T17:21:29.673Z,20.68
2022-08-31T17:24:38.656Z,20.60
2022-08-31T17:27:42.717Z,20.54
2022-08-31T17:30:49.692Z,20.50
2022-08-31T17:33:54.918Z,20.41
2022-08-31T17:37:05.030Z,20.43
2022-08-31T17:40:10.260Z,20.38
2022-08-31T17:43:14.990Z,20.36
2022-08-31T17:46:19.586Z,20.32
2022-08-31T17:49:25.695Z,20.25
2022-08-31T17:52:29.986Z,20.18
2022-08-31T17:55:34.169Z,20.12
2022-08-31T17:58:38.734Z,20.11
2022-08-31T18:01:44.710Z,20.04
2022-08-31T18:04:49.104Z,19.98
2022-08-31T18:07:53.304Z,20.01
2022-08-31T18:10:57.611Z,19.88
2022-08-31T18:14:01.744Z,19.87
2022-08-31T18:17:10.054Z,19.76
2022-08-31T18:20:14.230Z,19.71
2022-08-31T18:23:19.755Z,19.67
2022-08-31T18:26:31.758Z,19.64
2022-08-31T18:29:37.968Z,19.57
2022-08-31T18:32:42.527Z,19.52
2022-08-31T18:35:52.889Z,19.49
2022-08-31T18:38:59.359Z,19.47
2022-08-31T18:42:26.366Z,19.42
2022-08-31T18:45:30.768Z,19.35
2022-08-31T18:48:34.995Z,19.30
2022-08-31T18:51:42.975Z,19.25
2022-08-31T18:54:49.254Z,19.20
2022-08-31T18:57:54.047Z,19.17
2022-08-31T19:00:58.754Z,19.15
2022-08-31T19:04:04.747Z,19.13
2022-08-31T19:07:08.571Z,19.07
2022-08-31T19:10:13.796Z,19.04
2022-08-31T19:13:18.583Z,19.03
2022-08-31T19:16:26.667Z,18.95
2022-08-31T19:19:31.817Z,18.97
2022-08-31T19:22:35.643Z,18.91
2022-08-31T19:25:45.123Z,18.84
2022-08-31T19:28:50.215Z,18.79
2022-08-31T19:31:56.916Z,18.81
2022-08-31T19:35:01.097Z,18.78
2022-08-31T19:38:06.010Z,18.74
2022-08-31T19:41:23.301Z,18.72
2022-08-31T19:44:28.167Z,18.70
2022-08-31T19:47:32.545Z,18.64
2022-08-31T19:50:41.486Z,18.61
2022-08-31T19:53:49.701Z,18.57
2022-08-31T19:56:54.478Z,18.58
2022-08-31T19:59:58.406Z,18.52
2022-08-31T20:03:04.262Z,18.49
2022-08-31T20:06:12.611Z,18.51
2022-08-31T20:09:20.025Z,18.47
2022-08-31T20:12:27.054Z,18.42
2022-08-31T20:15:30.861Z,18.39
2022-08-31T20:18:37.417Z,18.36
2022-08-31T20:21:42.033Z,18.30
2022-08-31T20:24:46.005Z,18.30
2022-08-31T20:27:50.716Z,18.26
2022-08-31T20:30:58.984Z,18.22
2022-08-31T20:34:03.082Z,18.19
2022-08-31T20:37:07.101Z,18.16
2022-08-31T20:40:16.794Z,18.12
2022-08-31T20:43:22.044Z,18.10
2022-08-31T20:46:45.978Z,18.09
2022-08-31T20:50:01.420Z,18.08
2022-08-31T20:53:06.896Z,18.06
2022-08-31T20:56:17.174Z,18.01
2022-08-31T20:59:23.451Z,17.99
2022-08-31T21:02:28.409Z,17.95
2022-08-31T21:05:40.330Z,17.93
2022-08-31T21:08:46.084Z,17.89
2022-08-31T21:11:50.329Z,17.92
2022-08-31T21:14:55.390Z,17.86
2022-08-31T21:17:59.606Z,17.79
2022-08-31T21:21:10.498Z,17.73
2022-08-31T21:24:17.068Z,17.70
2022-08-31T21:27:20.965Z,17.65
2022-08-31T21:30:25.066Z,17.61
2022-08-31T21:33:29.181Z,17.57
2022-08-31T21:36:33.842Z,17.51
2022-08-31T21:39:39.969Z,17.47
2022-08-31T21:42:44.938Z,17.46
2022-08-31T21:46:06.427Z,17.41
2022-08-31T21:49:10.651Z,17.37
2022-08-31T21:52:16.957Z,17.32
2022-08-31T21:55:21.025Z,17.27
2022-08-31T21:58:25.386Z,17.23
2022-08-31T22:01:32.971Z,17.18
2022-08-31T22:04:42.956Z,17.17
2022-08-31T22:07:46.927Z,17.14
2022-08-31T22:10:51.367Z,17.08
2022-08-31T22:13:57.023Z,17.08
2022-08-31T22:17:03.693Z,17.06
2022-08-31T22:20:13.016Z,16.98
2022-08-31T22:23:16.872Z,16.95
2022-08-31T22:26:23.432Z,16.87
2022-08-31T22:29:30.842Z,16.85
2022-08-31T22:32:34.724Z,16.86
2022-08-31T22:35:39.404Z,16.80
2022-08-31T22:38:43.800Z,16.77
2022-08-31T22:41:47.828Z,16.74
2022-08-31T22:44:51.881Z,16.64
2022-08-31T22:47:56.074Z,16.65
2022-08-31T22:51:04.397Z,16.63
2022-08-31T22:54:10.206Z,16.61
2022-08-31T22:57:14.372Z,16.59
2022-08-31T23:00:19.658Z,16.58
2022-08-31T23:03:23.681Z,16.57
2022-08-31T23:06:29.946Z,16.50
2022-08-31T23:09:34.302Z,16.49
2022-08-31T23:12:38.749Z,16.47
2022-08-31T23:15:43.470Z,16.43
2022-08-31T23:18:48.724Z,16.39
2022-08-31T23:21:56.660Z,16.39
2022-08-31T23:25:01.857Z,16.37
2022-08-31T23:28:05.553Z,16.34
2022-08-31T23:31:10.793Z,16.27
2022-08-31T23:34:16.573Z,16.27
2022-08-31T23:37:25.792Z,16.22
2022-08-31T23:40:34.010Z,16.17
2022-08-31T23:43:38.305Z,16.21
2022-08-31T23:46:43.332Z,16.18
2022-08-31T23:49:51.254Z,16.13
2022-08-31T23:52:55.362Z,16.14
2022-08-31T23:55:59.459Z,16.15
2022-08-31T23:59:09.277Z,16.16
